Time;durP1;ratioP1;P1;durP2;ratioP2;P2;SDS_P1;SDS_P2;PMS_P1;PMS_P2;Temp;Humidity;BMP_temperature;BMP_pressure;BME280_temperature;BME280_humidity;BME280_pressure;Samples;Min_cycle;Max_cycle;Signal;HPM_P1;HPM_P2
2022/04/10 00:02:13;;;;;;;4.70;1.50;;;;;;;4.89;81.79;98277.34;5017152;28;20077;-93
2022/04/10 00:04:39;;;;;;;1.58;1.17;;;;;;;5.23;80.65;98305.91;5017233;28;20053;-93
2022/04/10 00:07:05;;;;;;;3.60;1.80;;;;;;;5.08;79.60;98306.97;5017595;28;20056;-93
2022/04/10 00:09:31;;;;;;;2.53;1.60;;;;;;;5.21;79.96;98305.06;5017057;28;20034;-93
2022/04/10 00:11:56;;;;;;;3.30;1.67;;;;;;;5.34;83.04;98311.91;5017227;28;20045;-93
2022/04/10 00:14:24;;;;;;;3.20;1.77;;;;;;;5.38;78.63;98323.25;5017186;28;20037;-93
2022/04/10 00:16:49;;;;;;;4.15;1.90;;;;;;;5.17;76.77;98284.91;5017357;28;20041;-93
2022/04/10 00:19:15;;;;;;;3.42;1.90;;;;;;;5.14;77.88;98306.91;5016932;28;20050;-90
2022/04/10 00:21:42;;;;;;;2.30;1.60;;;;;;;5.28;78.88;98318.13;5017133;28;20042;-93
2022/04/10 00:24:08;;;;;;;3.03;1.70;;;;;;;5.19;77.22;98293.66;5016951;28;20037;-93
2022/04/10 00:26:34;;;;;;;3.28;1.65;;;;;;;5.17;77.20;98298.94;5016692;28;20041;-93
2022/04/10 00:29:00;;;;;;;2.33;1.50;;;;;;;5.29;76.69;98317.25;5017317;28;20073;-92
2022/04/10 00:31:28;;;;;;;3.33;1.70;;;;;;;5.39;76.46;98304.78;5016925;28;20399;-93
2022/04/10 00:33:54;;;;;;;5.70;1.98;;;;;;;5.25;75.99;98302.34;5016877;28;20053;-94
2022/04/10 00:36:20;;;;;;;2.70;1.70;;;;;;;5.35;77.01;98306.59;5016886;28;20054;-93
2022/04/10 00:38:46;;;;;;;2.47;1.67;;;;;;;5.51;77.60;98307.28;5016737;28;20057;-94
2022/04/10 00:41:11;;;;;;;3.10;1.63;;;;;;;5.33;74.88;98286.41;5016892;28;20038;-94
2022/04/10 00:43:39;;;;;;;4.20;1.80;;;;;;;5.41;73.74;98312.69;5017385;28;20065;-91
2022/04/10 00:46:06;;;;;;;2.58;1.65;;;;;;;5.29;74.18;98295.25;5017010;28;20519;-93
2022/04/10 00:48:33;;;;;;;3.17;1.67;;;;;;;5.27;73.50;98290.03;5016137;28;20053;-93
2022/04/10 00:54:00;;;;;;;4.78;1.92;;;;;;;5.48;74.78;98301.16;5104577;27;20378;-93
2022/04/10 00:56:26;;;;;;;5.63;1.70;;;;;;;5.35;72.74;98289.91;5071892;28;20127;-92
2022/04/10 00:58:51;;;;;;;3.08;1.80;;;;;;;5.39;71.05;98281.06;5071213;28;20079;-93
2022/04/10 01:01:17;;;;;;;2.67;1.60;;;;;;;5.51;71.53;98317.81;5071917;28;20037;-94
2022/04/10 01:03:43;;;;;;;6.60;1.85;;;;;;;5.51;72.31;98322.22;5071958;28;20052;-94
2022/04/10 01:06:09;;;;;;;3.38;2.00;;;;;;;5.52;72.99;98314.28;5071441;28;20111;-93
2022/04/10 01:08:35;;;;;;;2.15;1.70;;;;;;;5.50;72.89;98318.69;5071770;28;20044;-92
2022/04/10 01:11:03;;;;;;;4.00;1.90;;;;;;;5.53;73.85;98323.03;5071139;28;20086;-92
2022/04/10 01:13:29;;;;;;;2.85;1.77;;;;;;;5.53;73.40;98344.16;5071458;28;21420;-94
2022/04/10 01:15:55;;;;;;;5.38;1.90;;;;;;;5.49;73.67;98329.28;5071047;28;20048;-94
2022/04/10 01:18:21;;;;;;;4.72;2.08;;;;;;;5.60;72.58;98352.88;5071287;28;20491;-93
2022/04/10 01:20:47;;;;;;;3.05;1.70;;;;;;;5.57;73.47;98337.94;5071329;28;20087;-93
2022/04/10 01:23:14;;;;;;;3.67;2.20;;;;;;;5.61;73.00;98328.22;5071233;28;20040;-93
2022/04/10 01:25:40;;;;;;;2.78;1.75;;;;;;;5.69;72.62;98334.28;5070914;28;20043;-93
2022/04/10 01:28:10;;;;;;;3.35;1.63;;;;;;;5.79;75.10;98341.16;5070963;28;20131;-93
2022/04/10 01:30:36;;;;;;;3.10;1.90;;;;;;;5.69;76.64;98327.22;5070949;28;20087;-94
2022/04/10 01:33:02;;;;;;;3.28;1.90;;;;;;;5.82;76.86;98348.16;5070572;28;20041;-93
2022/04/10 01:35:28;;;;;;;2.60;1.83;;;;;;;5.86;77.72;98348.09;5070732;28;20045;-93
2022/04/10 01:37:54;;;;;;;3.67;2.00;;;;;;;5.86;79.27;98350.72;5070756;28;20410;-92
2022/04/10 01:40:22;;;;;;;3.75;1.88;;;;;;;5.72;75.69;98335.06;5070785;28;20045;-93
2022/04/10 01:42:47;;;;;;;3.00;1.80;;;;;;;5.89;76.84;98358.59;5070465;28;20044;-92
2022/04/10 01:45:13;;;;;;;2.50;1.60;;;;;;;5.80;78.67;98328.84;5070497;28;20052;-93
2022/04/10 01:47:39;;;;;;;3.72;1.77;;;;;;;5.80;79.95;98319.16;5070503;28;20071;-93
2022/04/10 01:50:06;;;;;;;2.40;1.70;;;;;;;5.81;78.60;98320.00;5070178;28;20525;-93
2022/04/10 01:52:31;;;;;;;3.55;1.80;;;;;;;5.73;80.66;98341.25;5070118;28;20044;-93
2022/04/10 01:54:57;;;;;;;2.50;1.58;;;;;;;5.71;80.86;98348.31;5070294;28;20045;-92
2022/04/10 01:57:24;;;;;;;3.17;1.60;;;;;;;5.60;80.48;98358.16;5070049;28;20104;-94
2022/04/10 01:59:50;;;;;;;2.17;1.58;;;;;;;5.47;80.69;98349.53;5070090;28;20045;-91
2022/04/10 02:02:16;;;;;;;3.53;1.85;;;;;;;5.42;82.45;98346.97;5069883;28;20052;-93
2022/04/10 02:04:42;;;;;;;3.70;1.80;;;;;;;5.41;82.36;98339.94;5059748;28;20053;-92
2022/04/10 02:07:08;;;;;;;2.53;1.42;;;;;;;5.39;81.33;98339.06;5056638;28;20045;-92
2022/04/10 02:09:33;;;;;;;4.95;1.75;;;;;;;5.29;82.35;98326.88;5056726;28;20143;-93
2022/04/10 02:11:59;;;;;;;4.32;1.83;;;;;;;5.33;84.68;98344.41;5056461;28;20871;-93
2022/04/10 02:14:26;;;;;;;4.00;1.70;;;;;;;5.24;85.76;98360.34;5056628;28;20037;-92
2022/04/10 02:16:52;;;;;;;3.17;1.88;;;;;;;5.09;87.71;98362.28;5056737;28;20063;-92
2022/04/10 02:19:18;;;;;;;3.58;1.80;;;;;;;4.88;85.86;98362.50;5056430;28;20048;-92
2022/04/10 02:21:44;;;;;;;3.38;1.73;;;;;;;4.68;86.74;98366.25;5056216;28;20090;-93
2022/04/10 02:24:10;;;;;;;3.90;1.70;;;;;;;4.55;87.65;98377.78;5056401;28;20056;-94
2022/04/10 02:26:35;;;;;;;5.03;1.60;;;;;;;4.39;88.58;98379.69;5056249;28;20035;-92
2022/04/10 02:29:02;;;;;;;2.28;1.73;;;;;;;4.19;88.24;98355.31;5056561;28;20497;-93
2022/04/10 02:31:29;;;;;;;2.75;1.60;;;;;;;4.21;88.34;98387.75;5055945;28;20067;-94
2022/04/10 02:33:54;;;;;;;3.70;1.50;;;;;;;4.11;87.78;98376.41;5056144;28;20049;-92
2022/04/10 02:36:22;;;;;;;4.25;1.95;;;;;;;3.87;88.46;98370.41;5056370;28;20544;-93
2022/04/10 02:38:47;;;;;;;3.08;1.65;;;;;;;3.81;89.47;98394.13;5056344;28;20045;-92
2022/04/10 02:41:13;;;;;;;2.63;1.65;;;;;;;3.64;89.33;98383.72;5056251;28;20037;-93
2022/04/10 02:43:40;;;;;;;4.13;1.70;;;;;;;3.61;89.62;98399.50;5056158;28;20033;-93
2022/04/10 02:46:06;;;;;;;3.42;1.70;;;;;;;3.62;92.62;98410.88;5056452;28;20068;-93
2022/04/10 02:48:33;;;;;;;5.35;1.83;;;;;;;3.60;91.11;98410.91;5056184;28;20533;-92
2022/04/10 02:50:59;;;;;;;7.43;2.08;;;;;;;3.56;93.20;98411.81;5056256;28;20048;-92
2022/04/10 02:53:24;;;;;;;3.08;1.90;;;;;;;3.41;94.90;98406.63;5055740;28;20043;-94
2022/04/10 02:55:50;;;;;;;4.13;2.05;;;;;;;3.31;94.81;98395.25;5055938;28;20132;-92
2022/04/10 02:58:16;;;;;;;5.35;2.08;;;;;;;3.27;94.67;98401.41;5055875;28;20039;-93
2022/04/10 03:00:42;;;;;;;3.47;1.88;;;;;;;3.43;95.29;98421.50;5055841;28;20049;-93
2022/04/10 03:03:08;;;;;;;6.50;2.20;;;;;;;3.27;94.88;98390.91;5055788;28;20040;-93
2022/04/10 03:05:35;;;;;;;3.65;2.10;;;;;;;3.32;94.04;98411.91;5055796;28;20072;-92
2022/04/10 03:08:01;;;;;;;5.22;1.90;;;;;;;3.33;94.83;98425.03;5055715;28;20040;-93
2022/04/10 03:10:26;;;;;;;3.95;1.90;;;;;;;3.26;94.66;98436.47;5055646;28;20049;-93
2022/04/10 03:12:52;;;;;;;3.17;1.80;;;;;;;3.24;95.28;98440.84;5055721;28;20041;-92
2022/04/10 03:15:18;;;;;;;3.63;1.80;;;;;;;3.35;95.93;98464.47;5054893;28;20051;-93
2022/04/10 03:17:44;;;;;;;3.95;2.00;;;;;;;3.25;96.85;98432.06;5055669;28;20045;-93
2022/04/10 03:20:11;;;;;;;4.97;1.70;;;;;;;3.38;96.43;98475.81;5055321;28;20041;-92
2022/04/10 03:22:39;;;;;;;3.97;2.08;;;;;;;3.53;97.29;98482.78;5055654;28;20544;-92
2022/04/10 03:25:06;;;;;;;4.25;2.20;;;;;;;3.47;96.74;98467.94;5055595;28;20560;-93
2022/04/10 03:27:32;;;;;;;3.13;1.88;;;;;;;3.69;95.71;98475.75;5055505;28;20503;-92
2022/04/10 03:29:57;;;;;;;3.65;1.80;;;;;;;3.78;95.04;98475.69;5055622;28;20048;-93
2022/04/10 03:32:23;;;;;;;3.40;1.95;;;;;;;3.92;93.78;98459.81;5055195;28;20044;-94
2022/04/10 03:34:49;;;;;;;3.90;1.88;;;;;;;4.00;93.00;98463.28;5055182;28;20131;-92
2022/04/10 03:37:15;;;;;;;6.28;2.10;;;;;;;4.74;77.82;98461.00;5055696;28;20105;-92
2022/04/10 03:39:42;;;;;;;2.08;1.60;;;;;;;5.06;76.68;98472.16;5055315;28;20057;-93
2022/04/10 03:42:08;;;;;;;3.95;1.77;;;;;;;5.37;71.26;98472.69;5055336;28;20123;-92
2022/04/10 03:44:34;;;;;;;3.65;1.85;;;;;;;5.78;68.72;98481.03;5055819;28;20470;-93
2022/04/10 03:47:00;;;;;;;4.88;1.77;;;;;;;5.89;67.76;98492.31;5055013;28;20128;-92
2022/04/10 03:49:26;;;;;;;2.25;1.70;;;;;;;5.92;68.34;98472.03;5054950;28;20123;-94
2022/04/10 03:51:51;;;;;;;3.47;1.70;;;;;;;6.03;68.76;98508.88;5054681;28;20065;-92
2022/04/10 03:54:17;;;;;;;8.65;1.92;;;;;;;6.04;67.00;98515.03;5055071;28;20049;-94
2022/04/10 03:56:44;;;;;;;2.92;1.73;;;;;;;5.87;67.29;98507.28;5055946;28;20053;-94
2022/04/10 03:59:10;;;;;;;4.65;1.83;;;;;;;5.99;67.62;98540.63;5056234;28;20049;-92
2022/04/10 04:01:36;;;;;;;4.47;1.80;;;;;;;5.84;66.84;98526.66;5054961;28;20041;-94
2022/04/10 04:04:02;;;;;;;4.28;2.05;;;;;;;5.89;66.97;98548.59;5055874;28;20064;-93
2022/04/10 04:06:29;;;;;;;5.40;1.88;;;;;;;5.78;66.01;98532.00;5055159;28;20490;-94
2022/04/10 04:08:54;;;;;;;3.42;2.05;;;;;;;5.65;66.77;98518.09;5054847;28;20052;-94
2022/04/10 04:11:20;;;;;;;3.85;1.60;;;;;;;5.86;67.17;98561.84;5054688;28;20568;-93
2022/04/10 04:13:47;;;;;;;4.28;2.10;;;;;;;5.83;66.44;98572.41;5054868;28;20064;-93
2022/04/10 04:16:13;;;;;;;6.25;1.85;;;;;;;5.81;67.55;98575.97;5054859;28;20487;-92
2022/04/10 04:18:39;;;;;;;4.97;2.10;;;;;;;5.78;66.63;98570.72;5054838;28;20040;-91
2022/04/10 04:21:05;;;;;;;6.97;2.17;;;;;;;5.82;65.76;98583.88;5054525;28;20048;-92
2022/04/10 04:23:31;;;;;;;3.42;1.60;;;;;;;5.73;65.87;98584.84;5055168;28;20037;-93
2022/04/10 04:25:56;;;;;;;2.67;1.70;;;;;;;5.76;64.87;98581.28;5054675;28;20041;-92
2022/04/10 04:28:22;;;;;;;4.78;1.67;;;;;;;5.82;64.60;98596.19;5054235;28;20045;-92
2022/04/10 04:30:49;;;;;;;3.80;1.70;;;;;;;5.62;65.83;98577.94;5054142;28;20041;-94
2022/04/10 04:33:16;;;;;;;4.75;1.83;;;;;;;5.70;65.43;98615.66;5054453;28;20045;-92
2022/04/10 04:35:42;;;;;;;2.00;1.60;;;;;;;5.50;66.94;98600.88;5054493;28;20151;-94
2022/04/10 04:38:08;;;;;;;8.55;1.80;;;;;;;5.45;67.63;98605.34;5054723;28;20558;-92
2022/04/10 04:40:34;;;;;;;2.65;1.50;;;;;;;5.50;65.95;98619.34;5054490;28;20560;-93
2022/04/10 04:43:00;;;;;;;2.22;1.70;;;;;;;5.37;66.20;98599.25;5054125;28;20044;-93
2022/04/10 04:45:25;;;;;;;4.97;1.70;;;;;;;5.44;65.38;98629.94;5054681;28;20056;-92
2022/04/10 04:47:53;;;;;;;3.22;1.70;;;;;;;5.28;66.41;98602.84;5054306;28;20091;-93
2022/04/10 04:50:19;;;;;;;3.75;1.88;;;;;;;5.43;65.77;98636.13;5054330;28;20053;-92
2022/04/10 04:52:45;;;;;;;4.40;2.08;;;;;;;5.30;63.68;98613.38;5055165;28;20523;-92
2022/04/10 04:55:10;;;;;;;4.30;1.80;;;;;;;5.53;62.79;98644.81;5055531;28;20128;-93
2022/04/10 04:57:36;;;;;;;4.32;2.03;;;;;;;5.51;62.62;98646.63;5056140;28;20072;-92
2022/04/10 05:00:03;;;;;;;1.58;1.48;;;;;;;5.45;62.60;98633.47;5055292;28;20041;-93
2022/04/10 05:02:29;;;;;;;3.00;1.73;;;;;;;5.63;62.16;98657.03;5054947;28;20041;-92
2022/04/10 05:04:56;;;;;;;4.50;1.80;;;;;;;5.58;61.73;98656.22;5054400;28;20055;-92
2022/04/10 05:07:22;;;;;;;3.60;1.77;;;;;;;5.51;62.30;98641.34;5054713;28;20041;-92
2022/04/10 05:09:48;;;;;;;3.42;2.00;;;;;;;5.42;61.85;98637.03;5054287;28;20048;-92
2022/04/10 05:12:14;;;;;;;5.18;3.28;;;;;;;5.55;62.09;98670.31;5054356;28;20044;-92
2022/04/10 05:14:39;;;;;;;2.70;1.60;;;;;;;5.47;62.25;98647.53;5054243;28;20049;-92
2022/04/10 05:17:05;;;;;;;3.88;1.70;;;;;;;5.55;63.16;98666.78;5053987;28;20051;-93
2022/04/10 05:19:31;;;;;;;2.53;1.65;;;;;;;5.44;63.81;98655.44;5053892;28;20045;-91
2022/04/10 05:21:58;;;;;;;2.92;1.90;;;;;;;5.61;62.98;98679.06;5054032;28;20064;-92
2022/04/10 05:24:24;;;;;;;2.95;1.70;;;;;;;5.54;64.84;98671.19;5053896;28;20411;-93
2022/04/10 05:26:50;;;;;;;3.75;1.80;;;;;;;5.54;65.13;98684.38;5054335;28;20037;-94
2022/04/10 05:29:15;;;;;;;4.13;1.85;;;;;;;5.47;66.02;98673.91;5054206;28;20041;-92
2022/04/10 05:31:41;;;;;;;5.50;1.90;;;;;;;5.69;64.63;98703.63;5054444;28;20041;-94
2022/04/10 05:34:07;;;;;;;4.78;1.83;;;;;;;5.67;65.15;98684.28;5054071;28;20037;-93
2022/04/10 05:36:33;;;;;;;4.85;1.80;;;;;;;5.65;65.73;98693.97;5054212;28;20108;-93
2022/04/10 05:39:00;;;;;;;3.08;1.83;;;;;;;5.54;65.44;98691.41;5055195;28;20098;-93
2022/04/10 05:41:26;;;;;;;6.38;2.00;;;;;;;5.79;65.38;98722.88;5057756;28;20036;-92
2022/04/10 05:43:52;;;;;;;3.88;1.92;;;;;;;5.84;66.14;98719.31;5057547;28;20045;-94
2022/04/10 05:46:17;;;;;;;3.75;1.75;;;;;;;5.84;66.31;98721.94;5057360;28;20043;-93
2022/04/10 05:48:43;;;;;;;2.88;1.80;;;;;;;5.76;64.52;98703.53;5057964;28;20041;-92
2022/04/10 05:51:09;;;;;;;4.53;1.83;;;;;;;5.93;64.58;98719.22;5057916;28;20418;-93
2022/04/10 05:53:35;;;;;;;4.20;1.80;;;;;;;6.13;65.35;98734.03;5056814;28;20053;-94
2022/04/10 05:56:02;;;;;;;5.38;2.05;;;;;;;6.11;64.76;98730.53;5057480;28;20045;-92
2022/04/10 05:58:28;;;;;;;6.15;2.00;;;;;;;6.25;64.54;98743.59;5057505;28;20063;-92
2022/04/10 06:00:55;;;;;;;8.25;2.15;;;;;;;6.12;64.31;98727.88;5057843;28;20434;-93
2022/04/10 06:03:21;;;;;;;4.70;1.90;;;;;;;6.19;63.42;98731.31;5057078;28;20071;-91
2022/04/10 06:05:47;;;;;;;5.65;1.90;;;;;;;6.32;64.22;98743.50;5058073;28;20045;-92
2022/04/10 06:08:13;;;;;;;2.65;1.67;;;;;;;6.42;62.79;98757.50;5056822;28;20041;-94
2022/04/10 06:10:39;;;;;;;3.67;1.92;;;;;;;6.36;62.55;98742.59;5057001;28;20044;-93
2022/04/10 06:13:09;;;;;;;2.80;1.80;;;;;;;6.36;61.84;98725.88;5057448;28;20098;-94
2022/04/10 06:15:35;;;;;;;2.63;1.80;;;;;;;6.50;61.73;98731.84;5056846;28;20064;-93
2022/04/10 06:18:01;;;;;;;4.22;1.73;;;;;;;6.54;62.18;98727.44;5056981;28;20429;-93
2022/04/10 06:20:27;;;;;;;4.93;1.90;;;;;;;6.75;61.71;98744.81;5056842;28;20073;-92
2022/04/10 06:22:53;;;;;;;4.85;1.90;;;;;;;6.87;61.69;98727.91;5057215;28;20518;-93
2022/04/10 06:25:19;;;;;;;4.32;2.08;;;;;;;7.10;61.55;98744.34;5057200;28;20037;-92
2022/04/10 06:27:44;;;;;;;3.30;1.80;;;;;;;7.29;59.95;98752.03;5057003;28;20126;-93
2022/04/10 06:30:12;;;;;;;4.65;1.95;;;;;;;7.19;60.52;98730.13;5056955;28;20109;-93
2022/04/10 06:32:38;;;;;;;5.53;2.03;;;;;;;7.30;59.40;98738.78;5057032;28;20434;-92
2022/04/10 06:35:05;;;;;;;4.05;2.10;;;;;;;7.42;57.28;98745.66;5057315;28;20041;-93
2022/04/10 06:37:31;;;;;;;3.78;2.15;;;;;;;7.31;57.80;98737.03;5056731;28;20040;-92
2022/04/10 06:39:56;;;;;;;5.20;1.90;;;;;;;7.52;56.79;98760.50;5056574;28;20045;-92
2022/04/10 06:42:22;;;;;;;5.50;1.90;;;;;;;7.50;55.60;98735.81;5057045;28;20041;-92
2022/04/10 06:44:48;;;;;;;3.22;1.83;;;;;;;7.76;55.74;98758.38;5056508;28;20060;-94
2022/04/10 06:47:17;;;;;;;4.60;1.90;;;;;;;7.69;54.34;98749.66;5056553;28;20048;-95
2022/04/10 06:49:42;;;;;;;2.72;1.92;;;;;;;7.45;56.21;98761.50;5056913;28;20533;-93
2022/04/10 06:52:08;;;;;;;5.18;1.90;;;;;;;7.74;55.27;98754.88;5056393;28;20041;-92
2022/04/10 06:54:34;;;;;;;5.45;2.10;;;;;;;7.80;54.46;98754.78;5056449;28;20514;-94
2022/04/10 06:57:00;;;;;;;5.05;2.80;;;;;;;7.73;54.31;98758.44;5056732;28;20048;-92
2022/04/10 06:59:26;;;;;;;5.13;2.30;;;;;;;7.77;53.82;98742.47;5056486;28;20367;-93
2022/04/10 07:01:51;;;;;;;4.75;2.10;;;;;;;7.98;53.83;98741.25;5056591;28;20055;-93
2022/04/10 07:04:19;;;;;;;5.05;2.10;;;;;;;8.03;54.57;98757.91;5057048;28;20041;-94
2022/04/10 07:06:46;;;;;;;4.40;2.15;;;;;;;8.18;52.72;98766.50;5056077;28;20041;-93
2022/04/10 07:09:13;;;;;;;5.00;2.05;;;;;;;8.18;53.29;98782.41;5056348;28;20048;-94
2022/04/10 07:11:39;;;;;;;4.25;2.10;;;;;;;8.11;54.18;98752.50;5056174;28;20528;-92
2022/04/10 07:14:05;;;;;;;6.13;2.15;;;;;;;7.95;54.09;98754.53;5055741;28;20045;-93
2022/04/10 07:16:30;;;;;;;3.50;2.17;;;;;;;8.13;54.44;98763.06;5056440;28;20037;-92
2022/04/10 07:18:56;;;;;;;3.35;2.15;;;;;;;8.41;55.15;98761.72;5056246;28;20490;-93
2022/04/10 07:24:23;;;;;;;4.50;1.90;;;;;;;8.50;53.12;98788.91;5135910;27;20387;-94
2022/04/10 07:26:52;;;;;;;3.90;1.92;;;;;;;8.86;52.85;98789.13;5134016;27;20043;-94
2022/04/10 07:29:18;;;;;;;4.28;1.95;;;;;;;8.85;49.96;98761.75;5135237;27;20134;-94
2022/04/10 07:31:44;;;;;;;2.92;1.75;;;;;;;8.48;51.65;98751.88;5134476;27;20543;-93
2022/04/10 07:34:10;;;;;;;6.75;2.03;;;;;;;8.96;50.09;98790.72;5134508;27;20040;-93
2022/04/10 07:36:36;;;;;;;2.55;1.80;;;;;;;8.95;50.03;98763.28;5133884;27;20365;-91
2022/04/10 07:39:02;;;;;;;5.15;1.98;;;;;;;8.92;51.54;98786.38;5133533;27;20039;-91
2022/04/10 07:41:29;;;;;;;7.15;3.10;;;;;;;8.68;49.94;98751.47;5133155;27;20050;-93
2022/04/10 07:43:55;;;;;;;3.25;2.10;;;;;;;8.83;50.85;98764.44;5135004;27;20039;-94
2022/04/10 07:49:23;;;;;;;7.10;2.13;;;;;;;8.86;49.43;98783.84;5136433;27;20725;-94
2022/04/10 07:51:49;;;;;;;3.50;1.90;;;;;;;9.10;48.92;98762.09;5116573;28;20062;-93
2022/04/10 07:54:15;;;;;;;3.75;1.80;;;;;;;9.44;48.91;98787.91;5115556;28;20048;-95
2022/04/10 07:56:43;;;;;;;5.35;1.80;;;;;;;9.43;48.76;98767.56;5114794;28;20039;-94
2022/04/10 07:59:09;;;;;;;2.40;1.93;;;;;;;9.78;48.90;98780.06;5116489;28;20067;-94
2022/04/10 08:01:35;;;;;;;5.00;1.95;;;;;;;10.07;48.24;98774.03;5113238;28;20498;-94
2022/04/10 08:04:02;;;;;;;8.23;2.38;;;;;;;10.06;45.61;98795.31;5113404;28;20504;-91
2022/04/10 08:06:30;;;;;;;4.13;2.50;;;;;;;9.42;46.76;98776.47;5114771;28;20093;-95
2022/04/10 08:08:55;;;;;;;4.43;2.28;;;;;;;10.06;46.54;98790.00;5114415;28;20143;-95
2022/04/10 08:11:21;;;;;;;3.42;2.08;;;;;;;10.23;46.00;98760.34;5114360;28;20063;-95
2022/04/10 08:13:48;;;;;;;6.13;2.22;;;;;;;10.05;45.14;98782.94;5114639;28;20067;-94
2022/04/10 08:16:23;;;;;;;5.18;2.33;;;;;;;10.05;45.56;98815.69;5114062;28;20040;-94
2022/04/10 08:18:56;;;;;;;5.68;2.67;;;;;;;9.63;45.34;98786.59;5114481;28;20584;-95
2022/04/10 08:21:21;;;;;;;3.90;2.25;;;;;;;9.78;45.08;98811.91;5114010;28;20063;-92
2022/04/10 08:23:49;;;;;;;4.68;2.28;;;;;;;9.67;45.63;98795.34;5112650;28;20067;-93
2022/04/10 08:26:15;;;;;;;4.00;2.28;;;;;;;9.63;43.75;98791.03;5114407;28;20044;-95
2022/04/10 08:28:40;;;;;;;5.22;2.40;;;;;;;9.93;45.27;98810.69;5113409;28;20443;-96
2022/04/10 08:31:07;;;;;;;3.78;2.20;;;;;;;10.44;43.54;98814.78;5112846;28;20043;-93
2022/04/10 08:33:33;;;;;;;3.50;2.08;;;;;;;10.48;42.32;98804.00;5113841;28;20040;-95
2022/04/10 08:35:59;;;;;;;4.88;2.30;;;;;;;10.65;42.55;98800.06;5112858;28;20036;-94
2022/04/10 08:38:24;;;;;;;5.43;2.50;;;;;;;11.10;42.17;98824.50;5112467;28;20131;-94
2022/04/10 08:41:00;;;;;;;3.60;2.15;;;;;;;11.04;42.14;98800.72;5112493;28;20516;-95
2022/04/10 08:43:26;;;;;;;5.90;2.03;;;;;;;11.19;41.40;98810.06;5113373;28;20039;-96
2022/04/10 08:45:54;;;;;;;4.15;2.17;;;;;;;11.20;41.57;98811.78;5113208;28;20040;-93
2022/04/10 08:48:22;;;;;;;6.18;2.17;;;;;;;11.39;40.67;98824.59;5113632;28;20355;-93
2022/04/10 08:50:48;;;;;;;6.10;2.35;;;;;;;11.37;39.27;98821.09;5112996;28;20488;-95
2022/04/10 08:53:16;;;;;;;6.30;2.40;;;;;;;11.33;40.33;98819.44;5113488;28;20040;-95
2022/04/10 08:55:41;;;;;;;4.40;2.05;;;;;;;11.38;40.64;98817.50;5112896;28;20040;-94
2022/04/10 08:58:09;;;;;;;7.78;2.60;;;;;;;11.56;40.93;98826.72;5112213;28;20039;-95
2022/04/10 09:00:35;;;;;;;5.55;2.47;;;;;;;11.64;42.05;98816.72;5099168;28;20068;-94
2022/04/10 09:03:01;;;;;;;3.35;2.25;;;;;;;11.64;39.89;98814.06;5098900;28;20068;-94
2022/04/10 09:05:27;;;;;;;5.03;2.55;;;;;;;11.19;41.77;98825.16;5099444;28;20507;-94
2022/04/10 09:08:08;;;;;;;5.22;2.33;;;;;;;10.86;41.37;98826.06;5099963;28;20040;-94
2022/04/10 09:11:07;;;;;;;4.10;2.15;;;;;;;11.44;40.35;98847.47;5098009;28;20093;-94
2022/04/10 09:13:39;;;;;;;5.90;2.25;;;;;;;11.65;39.63;98832.66;5099854;28;20047;-94
2022/04/10 09:16:11;;;;;;;7.35;2.80;;;;;;;11.97;40.79;98868.16;5098931;28;20051;-94
2022/04/10 09:19:04;;;;;;;10.23;3.70;;;;;;;12.11;39.76;98873.03;5098683;28;20044;-94
2022/04/10 09:21:32;;;;;;;5.28;3.00;;;;;;;12.05;39.62;98846.56;5059929;28;20048;-95
2022/04/10 09:24:01;;;;;;;5.40;2.30;;;;;;;12.08;39.79;98835.81;5087048;28;20051;-94
2022/04/10 09:26:42;;;;;;;5.20;2.67;;;;;;;12.80;38.28;98852.06;5098980;28;20040;-95
2022/04/10 09:29:10;;;;;;;4.15;2.33;;;;;;;12.51;35.97;98861.94;5099560;28;20064;-94
2022/04/10 09:31:36;;;;;;;6.60;2.60;;;;;;;12.48;38.44;98843.38;5099567;28;20047;-93
2022/04/10 09:34:06;;;;;;;6.65;3.50;;;;;;;12.90;37.32;98861.50;5098934;28;20070;-94
2022/04/10 09:36:38;;;;;;;6.00;3.25;;;;;;;12.88;37.35;98857.13;5099355;28;20063;-93
2022/04/10 09:39:09;;;;;;;6.15;3.47;;;;;;;12.97;36.32;98870.16;5099460;28;20032;-94
2022/04/10 09:41:37;;;;;;;6.32;3.25;;;;;;;13.00;36.69;98853.16;5102798;28;20288;-95
2022/04/10 09:44:17;;;;;;;8.23;3.38;;;;;;;12.99;37.23;98833.63;5100980;28;20052;-95
2022/04/10 09:46:55;;;;;;;6.88;4.18;;;;;;;12.90;37.90;98864.19;5101562;28;20036;-95
2022/04/10 09:49:21;;;;;;;4.63;2.50;;;;;;;12.94;36.26;98844.44;5063415;28;20045;-96
2022/04/10 09:52:05;;;;;;;7.22;3.10;;;;;;;13.11;37.24;98853.66;5061741;28;20051;-94
2022/04/10 09:54:40;;;;;;;9.80;3.17;;;;;;;13.04;36.37;98863.69;5059526;28;20036;-95
2022/04/10 09:57:09;;;;;;;6.00;2.72;;;;;;;13.04;36.78;98833.44;5059683;28;20421;-93
2022/04/10 09:59:38;;;;;;;5.13;2.75;;;;;;;12.68;33.77;98868.50;5059087;28;20044;-95
2022/04/10 10:02:06;;;;;;;7.93;3.60;;;;;;;12.59;35.80;98866.16;5059324;28;20091;-93
2022/04/10 10:04:35;;;;;;;4.50;2.88;;;;;;;12.87;35.41;98837.56;5059599;28;20041;-93
2022/04/10 10:07:04;;;;;;;9.45;4.32;;;;;;;12.40;37.53;98848.06;5060234;28;20053;-95
2022/04/10 10:09:32;;;;;;;7.03;3.67;;;;;;;12.80;35.17;98852.06;5063373;28;20131;-94
2022/04/10 10:11:59;;;;;;;9.02;3.33;;;;;;;12.27;36.82;98844.97;5062471;28;20041;-95
2022/04/10 10:14:27;;;;;;;6.95;3.45;;;;;;;12.66;35.91;98835.66;5059323;28;20434;-94
2022/04/10 10:16:58;;;;;;;21.40;9.55;;;;;;;12.67;33.97;98846.28;5061432;28;20102;-95
2022/04/10 10:19:25;;;;;;;8.80;4.63;;;;;;;11.49;35.15;98858.00;5062330;28;20048;-94
2022/04/10 10:21:53;;;;;;;5.88;2.45;;;;;;;11.15;36.88;98824.38;5060185;28;20127;-93
2022/04/10 10:27:22;;;;;;;14.05;4.20;;;;;;;12.49;33.67;98825.56;5375281;22;20061;-95
2022/04/10 10:30:01;;;;;;;11.48;5.05;;;;;;;12.62;34.28;98826.91;5042473;28;20037;-96
2022/04/10 10:32:40;;;;;;;9.45;4.75;;;;;;;12.81;34.59;98832.44;5039974;28;20093;-92
2022/04/10 10:35:10;;;;;;;9.38;5.28;;;;;;;13.07;33.77;98834.19;5041591;28;20045;-95
2022/04/10 10:37:49;;;;;;;4.63;2.60;;;;;;;13.23;32.29;98818.50;5035037;28;20049;-95
2022/04/10 10:42:51;;;;;;;7.63;3.40;;;;;;;13.33;31.51;98825.25;5906413;23;19926;-95
2022/04/10 10:45:38;;;;;;;5.72;2.70;;;;;;;13.62;32.07;98833.09;5007879;28;20050;-96
2022/04/10 10:48:41;;;;;;;6.28;3.10;;;;;;;13.23;31.67;98831.84;5018098;28;20046;-95
2022/04/10 10:51:38;;;;;;;11.93;6.55;;;;;;;13.42;33.66;98857.91;4986922;28;20042;-94
2022/04/10 10:54:10;;;;;;;8.10;3.60;;;;;;;12.58;34.86;98843.03;5534250;22;20399;-94
2022/04/10 10:56:39;;;;;;;5.20;2.72;;;;;;;12.69;32.61;98827.56;4981378;28;20070;-95
2022/04/10 10:59:30;;;;;;;6.13;2.97;;;;;;;13.06;31.33;98853.81;4981178;28;20043;-93
2022/04/10 11:02:02;;;;;;;6.93;3.40;;;;;;;12.69;32.01;98838.22;4966871;28;20702;-94
2022/04/10 11:04:39;;;;;;;7.68;3.17;;;;;;;13.19;31.87;98848.03;5001564;28;20046;-95
2022/04/10 11:07:13;;;;;;;6.28;2.67;;;;;;;12.74;30.36;98831.78;5000335;28;20046;-93
2022/04/10 11:09:53;;;;;;;5.50;2.70;;;;;;;13.05;29.62;98821.81;4997740;28;20400;-95
2022/04/10 11:12:21;;;;;;;5.47;2.35;;;;;;;13.04;29.80;98826.31;4997795;28;20042;-94
2022/04/10 11:14:50;;;;;;;3.05;1.77;;;;;;;12.97;28.65;98823.91;4997800;28;20042;-93
2022/04/10 11:17:18;;;;;;;5.43;2.08;;;;;;;12.68;30.00;98833.81;4997189;28;20096;-95
2022/04/10 11:19:47;;;;;;;3.35;1.90;;;;;;;12.76;29.67;98838.88;4996080;28;20047;-91
2022/04/10 11:22:16;;;;;;;4.07;2.20;;;;;;;12.87;31.12;98836.72;4996250;28;20077;-92
2022/04/10 11:24:44;;;;;;;3.33;1.85;;;;;;;11.72;29.52;98836.88;4997816;28;20129;-93
2022/04/10 11:27:13;;;;;;;3.67;1.90;;;;;;;12.32;31.47;98823.47;4995285;28;20050;-95
2022/04/10 11:29:49;;;;;;;3.88;1.90;;;;;;;12.79;30.32;98828.09;4995985;28;20137;-95
2022/04/10 11:32:18;;;;;;;2.38;1.83;;;;;;;13.06;26.21;98837.78;4995695;28;20497;-96
2022/04/10 11:34:58;;;;;;;3.50;1.90;;;;;;;13.05;27.53;98822.69;4996693;28;20073;-92
2022/04/10 11:37:24;;;;;;;3.70;1.90;;;;;;;12.76;26.77;98823.75;4997064;28;20073;-93
2022/04/10 11:39:55;;;;;;;6.18;1.92;;;;;;;13.20;27.42;98823.06;4996966;28;20069;-93
2022/04/10 11:42:21;;;;;;;2.40;1.75;;;;;;;13.17;28.67;98852.56;4996377;28;20081;-93
2022/04/10 11:44:49;;;;;;;3.58;2.05;;;;;;;13.14;27.66;98833.06;4993215;28;20042;-92
2022/04/10 11:47:15;;;;;;;2.53;1.80;;;;;;;13.45;28.04;98839.97;4995278;28;20081;-93
2022/04/10 11:49:52;;;;;;;3.35;1.75;;;;;;;13.50;27.94;98842.47;4995381;28;20492;-93
2022/04/10 11:52:18;;;;;;;3.30;1.73;;;;;;;13.34;27.62;98836.84;4995403;28;20547;-94
2022/04/10 11:54:44;;;;;;;4.18;1.85;;;;;;;13.29;29.24;98825.44;4996333;28;20061;-93
2022/04/10 11:57:14;;;;;;;4.15;2.25;;;;;;;13.24;31.04;98849.59;4995730;28;20141;-95